Time;durP1;ratioP1;P1;durP2;ratioP2;P2;SDS_P1;SDS_P2;PMS_P1;PMS_P2;Temp;Humidity;BMP_temperature;BMP_pressure;BME280_temperature;BME280_humidity;BME280_pressure;Samples;Min_cycle;Max_cycle;Signal;HPM_P1;HPM_P2
2021/05/16 00:00:18;;;;;;;0.90;0.67;;;;;;;;;;5077961;28;20844;-78
2021/05/16 00:02:44;;;;;;;1.43;1.33;;;;;;;;;;5077064;28;20454;-78
2021/05/16 00:05:11;;;;;;;1.37;0.80;;;;;;;;;;5063311;28;20455;-78
2021/05/16 00:07:37;;;;;;;1.10;0.77;;;;;;;;;;5095808;28;20388;-78
2021/05/16 00:10:06;;;;;;;1.97;1.20;;;;;;;;;;5078421;28;20415;-78
2021/05/16 00:12:32;;;;;;;0.90;0.77;;;;;;;;;;5096509;28;20506;-78
2021/05/16 00:14:59;;;;;;;1.10;1.00;;;;;;;;;;5077933;28;20396;-78
2021/05/16 00:17:25;;;;;;;0.97;0.50;;;;;;;;;;5067217;28;20422;-78
2021/05/16 00:19:53;;;;;;;0.80;0.73;;;;;;;;;;5076562;28;20499;-78
2021/05/16 00:22:19;;;;;;;1.47;1.23;;;;;;;;;;5075912;28;20406;-78
2021/05/16 00:24:45;;;;;;;1.57;1.47;;;;;;;;;;5075537;28;20426;-78
2021/05/16 00:27:11;;;;;;;1.00;0.60;;;;;;;;;;5057312;28;20893;-77
2021/05/16 00:29:37;;;;;;;0.93;0.80;;;;;;;;;;5074621;28;20392;-78
2021/05/16 00:32:04;;;;;;;1.70;1.00;;;;;;;;;;5088053;28;20905;-78
2021/05/16 00:34:32;;;;;;;2.23;1.03;;;;;;;;;;5076927;28;20423;-77
2021/05/16 00:37:01;;;;;;;1.00;0.90;;;;;;;;;;5094832;28;20379;-77
2021/05/16 00:39:27;;;;;;;1.50;1.27;;;;;;;;;;5091821;28;20393;-82
2021/05/16 00:41:53;;;;;;;0.80;0.60;;;;;;;;;;5091046;28;20941;-84
2021/05/16 00:44:19;;;;;;;1.10;0.70;;;;;;;;;;5100609;28;20445;-82
2021/05/16 00:46:45;;;;;;;1.23;0.70;;;;;;;;;;5101158;28;20402;-80
2021/05/16 00:49:13;;;;;;;0.80;0.70;;;;;;;;;;5098694;28;20378;-78
2021/05/16 00:51:39;;;;;;;1.30;0.73;;;;;;;;;;5078324;28;20407;-78
2021/05/16 00:54:06;;;;;;;1.10;1.00;;;;;;;;;;5088955;28;20395;-78
2021/05/16 00:56:32;;;;;;;0.80;0.60;;;;;;;;;;5094482;28;20428;-78
2021/05/16 00:58:59;;;;;;;0.80;0.70;;;;;;;;;;5076353;28;20417;-81
2021/05/16 01:01:26;;;;;;;0.73;0.57;;;;;;;;;;5094109;28;20452;-79
2021/05/16 01:03:52;;;;;;;2.63;1.00;;;;;;;;;;5094534;28;21032;-78
2021/05/16 01:06:18;;;;;;;0.70;0.60;;;;;;;;;;5056622;28;20496;-78
2021/05/16 01:08:48;;;;;;;1.57;1.17;;;;;;;;;;5075543;28;20415;-78
2021/05/16 01:11:14;;;;;;;1.40;0.70;;;;;;;;;;5059095;28;20424;-79
2021/05/16 01:13:40;;;;;;;1.00;0.90;;;;;;;;;;5076534;28;20377;-79
2021/05/16 01:16:08;;;;;;;2.10;1.90;;;;;;;;;;5057190;28;20434;-78
2021/05/16 01:18:34;;;;;;;1.10;0.80;;;;;;;;;;5099590;28;20475;-80
2021/05/16 01:21:00;;;;;;;4.27;2.00;;;;;;;;;;5091148;28;20434;-79
2021/05/16 01:23:46;;;;;;;1.73;1.63;;;;;;;;;;5078617;28;20381;-78
2021/05/16 01:26:12;;;;;;;1.03;0.93;;;;;;;;;;5078102;28;20387;-79
2021/05/16 01:28:38;;;;;;;0.93;0.63;;;;;;;;;;5079538;28;20467;-82
2021/05/16 01:31:07;;;;;;;1.10;1.00;;;;;;;;;;5100604;28;20412;-83
2021/05/16 01:33:33;;;;;;;1.20;0.70;;;;;;;;;;5096653;28;21042;-76
2021/05/16 01:35:59;;;;;;;0.93;0.70;;;;;;;;;;5094193;28;20422;-76
2021/05/16 01:38:25;;;;;;;1.60;0.77;;;;;;;;;;5076084;28;20413;-76
2021/05/16 01:40:53;;;;;;;2.03;1.83;;;;;;;;;;5054900;28;20428;-76
2021/05/16 01:43:19;;;;;;;1.10;0.70;;;;;;;;;;5093903;28;20397;-76
2021/05/16 01:45:45;;;;;;;1.17;0.70;;;;;;;;;;5063230;28;20520;-76
2021/05/16 01:48:13;;;;;;;0.80;0.70;;;;;;;;;;5073263;28;20369;-76
2021/05/16 01:50:40;;;;;;;0.97;0.87;;;;;;;;;;5073004;28;20438;-76
2021/05/16 01:53:07;;;;;;;2.57;1.00;;;;;;;;;;5073390;28;20450;-76
2021/05/16 01:55:36;;;;;;;1.07;0.67;;;;;;;;;;5092858;28;20478;-76
2021/05/16 01:58:03;;;;;;;1.33;0.90;;;;;;;;;;5091205;28;20521;-75
2021/05/16 02:00:33;;;;;;;1.20;0.60;;;;;;;;;;5092598;28;20501;-76
2021/05/16 02:03:02;;;;;;;1.03;0.93;;;;;;;;;;5093096;28;20459;-76
2021/05/16 02:05:30;;;;;;;1.00;0.70;;;;;;;;;;5066190;28;20488;-76
2021/05/16 02:07:58;;;;;;;1.63;0.87;;;;;;;;;;5093000;28;20517;-76
2021/05/16 02:10:24;;;;;;;0.90;0.73;;;;;;;;;;5092774;28;20396;-76
2021/05/16 02:12:50;;;;;;;1.23;1.13;;;;;;;;;;5093114;28;20516;-76
2021/05/16 02:15:16;;;;;;;2.23;1.13;;;;;;;;;;5082643;22;20969;-69
2021/05/16 02:17:43;;;;;;;0.90;0.80;;;;;;;;;;5072334;28;20835;-69
2021/05/16 02:20:10;;;;;;;1.40;0.90;;;;;;;;;;5098462;28;20413;-70
2021/05/16 02:22:36;;;;;;;1.10;0.70;;;;;;;;;;5091536;28;20404;-70
2021/05/16 02:25:02;;;;;;;1.77;0.97;;;;;;;;;;5090989;28;20457;-69
2021/05/16 02:27:28;;;;;;;1.07;0.97;;;;;;;;;;5091597;28;20379;-70
2021/05/16 02:29:54;;;;;;;0.90;0.57;;;;;;;;;;5107812;22;21003;-76
2021/05/16 02:32:20;;;;;;;2.30;0.70;;;;;;;;;;5092621;28;20421;-76
2021/05/16 02:34:46;;;;;;;1.23;0.77;;;;;;;;;;5107127;28;20491;-75
2021/05/16 02:37:15;;;;;;;1.10;0.83;;;;;;;;;;5112806;28;20829;-75
2021/05/16 02:39:43;;;;;;;2.40;1.47;;;;;;;;;;5111537;28;20404;-76
2021/05/16 02:42:09;;;;;;;1.27;1.07;;;;;;;;;;5111352;28;20379;-76
2021/05/16 02:44:38;;;;;;;2.30;2.20;;;;;;;;;;5102228;28;20427;-75
2021/05/16 02:47:04;;;;;;;0.77;0.57;;;;;;;;;;5089609;28;20416;-75
2021/05/16 02:49:30;;;;;;;0.97;0.87;;;;;;;;;;5111076;28;20389;-75
2021/05/16 02:51:56;;;;;;;0.80;0.60;;;;;;;;;;5093812;28;20404;-75
2021/05/16 02:54:25;;;;;;;1.00;0.70;;;;;;;;;;5092144;28;20413;-75
2021/05/16 02:56:53;;;;;;;2.60;0.80;;;;;;;;;;5092037;28;20378;-75
2021/05/16 02:59:21;;;;;;;1.30;0.80;;;;;;;;;;5091604;28;20390;-72
2021/05/16 03:01:47;;;;;;;1.33;1.23;;;;;;;;;;5112347;28;20903;-72
2021/05/16 03:04:13;;;;;;;1.77;1.00;;;;;;;;;;5110466;28;20494;-73
2021/05/16 03:06:41;;;;;;;0.80;0.60;;;;;;;;;;5091149;28;20394;-73
2021/05/16 03:09:10;;;;;;;2.47;0.93;;;;;;;;;;5092387;28;20402;-72
2021/05/16 03:11:36;;;;;;;1.33;0.70;;;;;;;;;;5110779;28;20750;-72
2021/05/16 03:14:02;;;;;;;0.80;0.60;;;;;;;;;;5105078;28;20400;-72
2021/05/16 03:16:28;;;;;;;1.10;0.70;;;;;;;;;;5073294;28;20970;-71
2021/05/16 03:18:54;;;;;;;1.53;1.00;;;;;;;;;;5093357;28;20401;-72
2021/05/16 03:21:25;;;;;;;2.10;1.17;;;;;;;;;;5083650;28;20479;-71
2021/05/16 03:23:51;;;;;;;1.00;0.70;;;;;;;;;;5110552;28;20403;-71
2021/05/16 03:26:17;;;;;;;2.30;1.40;;;;;;;;;;5111868;28;20371;-71
2021/05/16 03:28:43;;;;;;;1.73;1.03;;;;;;;;;;5102889;28;20394;-72
2021/05/16 03:31:09;;;;;;;0.80;0.50;;;;;;;;;;5090849;28;20374;-72
2021/05/16 03:33:34;;;;;;;0.90;0.70;;;;;;;;;;5099081;28;20408;-72
2021/05/16 03:36:01;;;;;;;1.20;0.90;;;;;;;;;;5110363;28;20400;-72
2021/05/16 03:38:27;;;;;;;1.37;0.87;;;;;;;;;;5110370;28;20467;-72
2021/05/16 03:40:53;;;;;;;1.10;1.00;;;;;;;;;;5111445;28;20383;-72
2021/05/16 03:43:20;;;;;;;0.83;0.63;;;;;;;;;;5093653;28;20390;-72
2021/05/16 03:45:48;;;;;;;2.80;1.40;;;;;;;;;;5101885;28;20526;-73
2021/05/16 03:48:15;;;;;;;0.77;0.60;;;;;;;;;;5110878;28;20417;-73
2021/05/16 03:50:43;;;;;;;0.97;0.87;;;;;;;;;;5101870;28;20471;-73
2021/05/16 03:53:09;;;;;;;1.00;0.60;;;;;;;;;;5095022;28;20428;-73
2021/05/16 03:55:35;;;;;;;0.70;0.50;;;;;;;;;;5072912;28;20468;-73
2021/05/16 03:58:03;;;;;;;0.83;0.67;;;;;;;;;;5104060;28;20415;-73
2021/05/16 04:00:31;;;;;;;0.80;0.60;;;;;;;;;;5111268;28;20374;-72
2021/05/16 04:02:57;;;;;;;1.17;0.83;;;;;;;;;;5109373;28;20419;-76
2021/05/16 04:05:23;;;;;;;1.40;0.60;;;;;;;;;;5100987;28;20464;-76
2021/05/16 04:07:49;;;;;;;1.53;1.43;;;;;;;;;;5090906;28;20459;-76
2021/05/16 04:10:15;;;;;;;1.37;1.10;;;;;;;;;;5073267;28;20401;-77
2021/05/16 04:12:44;;;;;;;1.40;0.70;;;;;;;;;;5091197;28;20369;-76
2021/05/16 04:15:10;;;;;;;1.43;0.70;;;;;;;;;;5091453;28;20407;-75
2021/05/16 04:17:36;;;;;;;0.93;0.63;;;;;;;;;;5091926;28;20478;-78
2021/05/16 04:20:02;;;;;;;1.47;0.80;;;;;;;;;;5100151;28;20876;-76
2021/05/16 04:22:28;;;;;;;1.03;0.60;;;;;;;;;;5079468;28;20421;-75
2021/05/16 04:24:54;;;;;;;2.80;0.70;;;;;;;;;;5091712;28;20427;-75
2021/05/16 04:27:20;;;;;;;1.33;0.90;;;;;;;;;;5091158;28;20368;-76
2021/05/16 04:29:46;;;;;;;0.80;0.70;;;;;;;;;;5105200;28;20403;-75
2021/05/16 04:32:12;;;;;;;0.80;0.60;;;;;;;;;;5111924;28;20392;-75
2021/05/16 04:34:38;;;;;;;1.80;1.10;;;;;;;;;;5098206;28;21041;-74
2021/05/16 04:37:04;;;;;;;0.90;0.70;;;;;;;;;;5094282;28;20382;-74
2021/05/16 04:39:33;;;;;;;5.17;1.00;;;;;;;;;;5111036;28;20370;-75
2021/05/16 04:41:59;;;;;;;3.40;0.90;;;;;;;;;;5112329;28;20910;-74
2021/05/16 04:44:25;;;;;;;1.00;0.77;;;;;;;;;;5114142;28;20477;-74
2021/05/16 04:46:51;;;;;;;1.27;0.90;;;;;;;;;;5099189;28;20409;-73
2021/05/16 04:49:17;;;;;;;0.80;0.60;;;;;;;;;;5095552;28;20367;-77
2021/05/16 04:51:45;;;;;;;0.90;0.70;;;;;;;;;;5077730;28;20487;-76
2021/05/16 04:54:11;;;;;;;1.37;1.07;;;;;;;;;;5076069;28;20593;-76
2021/05/16 04:56:37;;;;;;;3.23;1.53;;;;;;;;;;5094059;28;20819;-75
2021/05/16 04:59:05;;;;;;;0.90;0.70;;;;;;;;;;5093344;28;20405;-75
2021/05/16 05:01:32;;;;;;;0.80;0.50;;;;;;;;;;5113350;28;20431;-78
2021/05/16 05:04:01;;;;;;;1.10;1.00;;;;;;;;;;5096773;28;20419;-77
2021/05/16 05:06:28;;;;;;;1.47;0.90;;;;;;;;;;5090078;28;20521;-74
2021/05/16 05:08:54;;;;;;;0.70;0.57;;;;;;;;;;5114690;28;20981;-72
2021/05/16 05:11:20;;;;;;;1.10;1.00;;;;;;;;;;5094996;28;20392;-74
2021/05/16 05:13:46;;;;;;;1.03;0.70;;;;;;;;;;5077660;28;20429;-73
2021/05/16 05:16:12;;;;;;;1.00;0.77;;;;;;;;;;5094059;28;20382;-72
2021/05/16 05:18:38;;;;;;;2.13;1.00;;;;;;;;;;5093772;28;20386;-74
2021/05/16 05:21:05;;;;;;;1.10;1.00;;;;;;;;;;5099281;28;20398;-74
2021/05/16 05:23:33;;;;;;;1.90;1.33;;;;;;;;;;5111219;28;20421;-74
2021/05/16 05:25:59;;;;;;;0.93;0.77;;;;;;;;;;5113901;28;20932;-74
2021/05/16 05:28:25;;;;;;;1.30;0.83;;;;;;;;;;5112698;28;20431;-74
2021/05/16 05:30:51;;;;;;;1.17;1.07;;;;;;;;;;5104551;28;20877;-74
2021/05/16 05:33:19;;;;;;;1.00;0.70;;;;;;;;;;5097407;28;20413;-73
2021/05/16 05:35:45;;;;;;;0.80;0.50;;;;;;;;;;5114423;28;20459;-74
2021/05/16 05:38:11;;;;;;;1.00;0.90;;;;;;;;;;5119176;28;20386;-74
2021/05/16 05:40:37;;;;;;;4.87;1.10;;;;;;;;;;5097291;28;20428;-75
2021/05/16 05:43:03;;;;;;;1.80;1.70;;;;;;;;;;5081536;28;20906;-76
2021/05/16 05:45:29;;;;;;;1.13;0.80;;;;;;;;;;5103500;28;20455;-76
2021/05/16 05:47:58;;;;;;;1.00;0.77;;;;;;;;;;5096800;28;20417;-74
2021/05/16 05:50:26;;;;;;;1.00;0.90;;;;;;;;;;5103642;28;20383;-75
2021/05/16 05:52:52;;;;;;;1.63;0.60;;;;;;;;;;5081657;28;20388;-76
2021/05/16 05:55:18;;;;;;;1.23;1.03;;;;;;;;;;5082151;28;20456;-76
2021/05/16 05:57:44;;;;;;;1.00;0.80;;;;;;;;;;5100443;28;20431;-75
2021/05/16 06:00:11;;;;;;;1.73;1.17;;;;;;;;;;5098349;28;20449;-76
2021/05/16 06:02:37;;;;;;;1.37;1.27;;;;;;;;;;5094266;28;20873;-75
2021/05/16 06:05:03;;;;;;;1.57;1.47;;;;;;;;;;5109635;28;20419;-75
2021/05/16 06:07:29;;;;;;;2.93;1.67;;;;;;;;;;5109931;28;20417;-76
2021/05/16 06:09:55;;;;;;;1.53;1.43;;;;;;;;;;5105851;28;20371;-75
2021/05/16 06:12:21;;;;;;;0.97;0.70;;;;;;;;;;5111103;28;20456;-74
2021/05/16 06:14:52;;;;;;;4.53;0.90;;;;;;;;;;5115602;28;20782;-76
2021/05/16 06:17:18;;;;;;;1.10;0.90;;;;;;;;;;5117346;28;20468;-76
2021/05/16 06:19:44;;;;;;;2.87;1.30;;;;;;;;;;5103062;28;20396;-75
2021/05/16 06:22:13;;;;;;;2.20;1.77;;;;;;;;;;5098295;28;20421;-75
2021/05/16 06:24:40;;;;;;;1.10;0.90;;;;;;;;;;5112457;28;20429;-74
2021/05/16 06:27:06;;;;;;;1.30;1.00;;;;;;;;;;5093851;28;20459;-75
2021/05/16 06:29:32;;;;;;;2.10;1.40;;;;;;;;;;5101255;28;20530;-74
2021/05/16 06:31:58;;;;;;;1.10;0.60;;;;;;;;;;5117051;28;20932;-73
2021/05/16 06:34:24;;;;;;;2.30;1.00;;;;;;;;;;5102281;28;20908;-74
2021/05/16 06:36:49;;;;;;;1.13;1.03;;;;;;;;;;5113845;28;20491;-74
2021/05/16 06:39:15;;;;;;;1.07;0.97;;;;;;;;;;5100534;28;20381;-74
2021/05/16 06:41:41;;;;;;;3.87;1.07;;;;;;;;;;5115429;28;20432;-73
2021/05/16 06:44:07;;;;;;;1.73;0.60;;;;;;;;;;5115938;28;20459;-73
2021/05/16 06:46:36;;;;;;;1.90;1.07;;;;;;;;;;5099323;28;20421;-73
2021/05/16 06:49:02;;;;;;;1.30;0.83;;;;;;;;;;5111969;28;20414;-74
2021/05/16 06:51:28;;;;;;;2.80;2.60;;;;;;;;;;5081940;28;20449;-74
2021/05/16 06:53:54;;;;;;;0.97;0.87;;;;;;;;;;5105123;28;20414;-73
2021/05/16 06:56:20;;;;;;;0.93;0.83;;;;;;;;;;5103697;28;20496;-74
2021/05/16 06:58:48;;;;;;;2.13;1.07;;;;;;;;;;5094608;28;20539;-74
2021/05/16 07:01:14;;;;;;;1.43;1.03;;;;;;;;;;5099962;28;20395;-74
2021/05/16 07:03:41;;;;;;;0.90;0.80;;;;;;;;;;5106293;28;20386;-74
2021/05/16 07:06:07;;;;;;;1.00;0.80;;;;;;;;;;5113473;28;20456;-74
2021/05/16 07:08:34;;;;;;;2.27;1.37;;;;;;;;;;5115040;28;20412;-74
2021/05/16 07:11:00;;;;;;;2.30;1.50;;;;;;;;;;5115486;28;20392;-75
2021/05/16 07:13:28;;;;;;;0.90;0.77;;;;;;;;;;5107470;28;20401;-74
2021/05/16 07:15:54;;;;;;;2.17;1.30;;;;;;;;;;5097743;28;20485;-74
2021/05/16 07:18:23;;;;;;;6.57;2.03;;;;;;;;;;5095671;28;20409;-74
2021/05/16 07:20:49;;;;;;;2.67;2.03;;;;;;;;;;5095011;28;20473;-76
2021/05/16 07:23:15;;;;;;;2.23;1.13;;;;;;;;;;5096460;28;20839;-76
2021/05/16 07:25:41;;;;;;;6.70;2.00;;;;;;;;;;5113294;28;20438;-76
2021/05/16 07:28:07;;;;;;;2.07;1.87;;;;;;;;;;5116365;28;20767;-75
2021/05/16 07:30:33;;;;;;;2.73;2.00;;;;;;;;;;5116079;28;20491;-76
2021/05/16 07:32:59;;;;;;;2.00;1.73;;;;;;;;;;5103217;28;20438;-76
2021/05/16 07:35:25;;;;;;;2.23;1.60;;;;;;;;;;5088602;28;20804;-76
2021/05/16 07:37:51;;;;;;;3.13;1.67;;;;;;;;;;5117963;28;20378;-76
2021/05/16 07:40:18;;;;;;;2.40;0.97;;;;;;;;;;5102416;28;20427;-76
2021/05/16 07:42:44;;;;;;;2.73;2.43;;;;;;;;;;5078111;28;20407;-75
2021/05/16 07:45:11;;;;;;;3.03;2.20;;;;;;;;;;5080382;28;20438;-75
2021/05/16 07:47:38;;;;;;;1.47;1.10;;;;;;;;;;5080263;28;20447;-73
2021/05/16 07:50:04;;;;;;;1.97;1.20;;;;;;;;;;5068498;28;20396;-73
2021/05/16 07:52:30;;;;;;;3.93;1.70;;;;;;;;;;5075755;28;20413;-74
2021/05/16 07:54:56;;;;;;;1.57;1.20;;;;;;;;;;5095486;28;20402;-72
2021/05/16 07:57:22;;;;;;;1.40;1.30;;;;;;;;;;5074107;28;20417;-71
2021/05/16 07:59:48;;;;;;;1.60;1.50;;;;;;;;;;5089816;28;20416;-73
2021/05/16 08:02:14;;;;;;;2.17;1.33;;;;;;;;;;5096753;28;20775;-72
2021/05/16 08:04:42;;;;;;;2.17;1.93;;;;;;;;;;5097834;28;20946;-73
2021/05/16 08:07:08;;;;;;;1.63;1.30;;;;;;;;;;5074963;28;20401;-73
2021/05/16 08:09:34;;;;;;;1.73;0.97;;;;;;;;;;5091694;28;20380;-73
2021/05/16 08:12:00;;;;;;;1.87;1.43;;;;;;;;;;5092810;28;20749;-71
2021/05/16 08:14:28;;;;;;;1.20;1.00;;;;;;;;;;5072892;28;20441;-72
2021/05/16 08:16:54;;;;;;;1.63;1.47;;;;;;;;;;5099313;28;20930;-70
2021/05/16 08:19:20;;;;;;;2.10;1.90;;;;;;;;;;5092645;28;20391;-74
2021/05/16 08:21:46;;;;;;;1.83;1.30;;;;;;;;;;5092050;28;20405;-73
2021/05/16 08:24:14;;;;;;;1.83;1.73;;;;;;;;;;5081886;28;20443;-71
2021/05/16 08:26:40;;;;;;;1.50;1.40;;;;;;;;;;5113245;28;20413;-71
2021/05/16 08:29:06;;;;;;;2.30;1.53;;;;;;;;;;5120820;28;20409;-71
2021/05/16 08:31:35;;;;;;;2.43;2.00;;;;;;;;;;5111385;28;20546;-71
2021/05/16 08:34:04;;;;;;;2.83;1.80;;;;;;;;;;5113741;28;20429;-72
2021/05/16 08:36:38;;;;;;;1.47;1.37;;;;;;;;;;5126996;22;20560;-75
2021/05/16 08:39:05;;;;;;;1.40;1.00;;;;;;;;;;5093851;28;20381;-75
2021/05/16 08:41:32;;;;;;;2.13;1.33;;;;;;;;;;5106157;28;20431;-75
2021/05/16 08:43:58;;;;;;;2.60;2.27;;;;;;;;;;5093337;28;20488;-74
2021/05/16 08:46:24;;;;;;;3.10;1.20;;;;;;;;;;5073297;28;20535;-74
2021/05/16 08:48:50;;;;;;;5.33;2.03;;;;;;;;;;5070090;28;21135;-73
2021/05/16 08:51:16;;;;;;;4.37;1.87;;;;;;;;;;5095350;28;20390;-75
2021/05/16 08:53:43;;;;;;;1.00;0.90;;;;;;;;;;5095214;28;20771;-73
2021/05/16 08:56:10;;;;;;;2.40;1.57;;;;;;;;;;5094139;28;20458;-75
2021/05/16 08:58:36;;;;;;;2.10;1.20;;;;;;;;;;5101672;28;20416;-74
2021/05/16 09:01:16;;;;;;;1.40;1.30;;;;;;;;;;5085270;28;20437;-76
2021/05/16 09:03:42;;;;;;;1.47;1.20;;;;;;;;;;5087912;28;20481;-75
2021/05/16 09:06:08;;;;;;;3.00;0.97;;;;;;;;;;5097531;28;20448;-77
2021/05/16 09:08:34;;;;;;;2.90;1.70;;;;;;;;;;5095170;28;20417;-76
2021/05/16 09:11:02;;;;;;;1.23;1.00;;;;;;;;;;5103271;28;20404;-76
2021/05/16 09:13:33;;;;;;;2.10;1.40;;;;;;;;;;5096964;28;20433;-75
2021/05/16 09:16:18;;;;;;;1.53;1.30;;;;;;;;;;5089002;28;20951;-75
2021/05/16 09:18:51;;;;;;;2.67;1.17;;;;;;;;;;5066307;28;20403;-74
2021/05/16 09:21:32;;;;;;;1.33;1.20;;;;;;;;;;5083554;28;20396;-75
2021/05/16 09:24:05;;;;;;;2.40;1.23;;;;;;;;;;5070262;28;20433;-78
2021/05/16 09:26:34;;;;;;;1.00;0.70;;;;;;;;;;5070846;28;20608;-76
2021/05/16 09:29:19;;;;;;;1.27;1.03;;;;;;;;;;5082204;28;20946;-76
2021/05/16 09:31:50;;;;;;;1.97;0.80;;;;;;;;;;5068887;28;20402;-76
2021/05/16 09:34:17;;;;;;;1.43;0.80;;;;;;;;;;5088891;28;20432;-74
2021/05/16 09:36:49;;;;;;;1.17;1.07;;;;;;;;;;5085574;28;20484;-75
2021/05/16 09:39:20;;;;;;;1.77;1.37;;;;;;;;;;5087554;28;20422;-76
2021/05/16 09:41:58;;;;;;;1.10;1.00;;;;;;;;;;5086019;28;20454;-74
2021/05/16 09:44:34;;;;;;;0.80;0.63;;;;;;;;;;5084283;28;21152;-74
2021/05/16 09:47:31;;;;;;;1.10;0.93;;;;;;;;;;5084424;28;20532;-76
2021/05/16 09:49:59;;;;;;;1.10;0.90;;;;;;;;;;5068993;28;20423;-77
2021/05/16 09:52:32;;;;;;;1.63;0.97;;;;;;;;;;5085136;28;20400;-77
2021/05/16 09:55:06;;;;;;;0.90;0.80;;;;;;;;;;5065814;28;20421;-76
2021/05/16 09:57:33;;;;;;;1.40;0.90;;;;;;;;;;5090666;28;20469;-75
2021/05/16 09:59:59;;;;;;;1.60;1.50;;;;;;;;;;5084343;28;20408;-75
2021/05/16 10:02:28;;;;;;;1.93;1.10;;;;;;;;;;5090773;28;21198;-76
2021/05/16 10:04:56;;;;;;;1.90;1.60;;;;;;;;;;5083217;28;20456;-74
2021/05/16 10:07:23;;;;;;;1.10;0.90;;;;;;;;;;5086431;28;20958;-74
2021/05/16 10:09:49;;;;;;;1.83;1.37;;;;;;;;;;5085416;28;20436;-76
2021/05/16 10:12:20;;;;;;;1.10;1.00;;;;;;;;;;5072235;28;20761;-75
2021/05/16 10:14:48;;;;;;;1.30;1.10;;;;;;;;;;5087142;28;20417;-74
2021/05/16 10:17:17;;;;;;;1.63;1.50;;;;;;;;;;5098213;28;20431;-74
2021/05/16 10:19:44;;;;;;;2.07;1.87;;;;;;;;;;5076290;28;20412;-76
2021/05/16 10:22:11;;;;;;;1.40;1.10;;;;;;;;;;5108159;28;20401;-76
2021/05/16 10:24:38;;;;;;;1.73;1.40;;;;;;;;;;5093305;28;20478;-78
2021/05/16 10:27:23;;;;;;;3.07;1.33;;;;;;;;;;5099049;28;20425;-76
2021/05/16 10:29:58;;;;;;;2.70;2.07;;;;;;;;;;5083925;28;20421;-75
2021/05/16 10:32:27;;;;;;;1.90;1.30;;;;;;;;;;5074389;28;20457;-76
2021/05/16 10:34:54;;;;;;;1.67;1.10;;;;;;;;;;5093058;28;20969;-81
2021/05/16 10:37:35;;;;;;;1.80;1.70;;;;;;;;;;5082735;28;20441;-74
2021/05/16 10:40:02;;;;;;;6.40;1.40;;;;;;;;;;5087694;28;20580;-76
2021/05/16 10:42:38;;;;;;;1.87;1.53;;;;;;;;;;5108929;28;20408;-77
2021/05/16 10:45:04;;;;;;;2.57;2.10;;;;;;;;;;5083787;28;20449;-75
2021/05/16 10:47:43;;;;;;;1.80;1.13;;;;;;;;;;5097423;28;20441;-76
2021/05/16 10:50:09;;;;;;;1.90;1.23;;;;;;;;;;5104310;28;20439;-75
2021/05/16 10:52:35;;;;;;;1.60;1.43;;;;;;;;;;5107941;28;20849;-74
2021/05/16 10:55:01;;;;;;;2.20;1.30;;;;;;;;;;5094117;28;20417;-75
2021/05/16 10:57:40;;;;;;;1.50;0.87;;;;;;;;;;5095142;28;20433;-74
2021/05/16 11:00:30;;;;;;;0.80;0.60;;;;;;;;;;5094929;28;20773;-75
2021/05/16 11:03:07;;;;;;;1.17;0.93;;;;;;;;;;5076771;28;20417;-75
2021/05/16 11:05:50;;;;;;;9.33;1.33;;;;;;;;;;5095109;28;20460;-74
2021/05/16 11:08:18;;;;;;;0.93;0.83;;;;;;;;;;5098532;28;20446;-75
2021/05/16 11:10:45;;;;;;;1.30;0.80;;;;;;;;;;5098006;28;20436;-75
2021/05/16 11:13:12;;;;;;;0.80;0.73;;;;;;;;;;5101926;28;20424;-75
2021/05/16 11:15:45;;;;;;;0.90;0.60;;;;;;;;;;5095774;28;20401;-75
2021/05/16 11:18:12;;;;;;;1.43;1.10;;;;;;;;;;5077742;28;20439;-74
2021/05/16 11:20:42;;;;;;;0.80;0.77;;;;;;;;;;5076370;28;20405;-74
2021/05/16 11:23:08;;;;;;;2.43;1.20;;;;;;;;;;5094842;28;20480;-72
2021/05/16 11:25:34;;;;;;;0.80;0.67;;;;;;;;;;5091210;28;20445;-74
2021/05/16 11:28:09;;;;;;;0.80;0.60;;;;;;;;;;5097780;28;20768;-74
2021/05/16 11:30:35;;;;;;;1.03;0.77;;;;;;;;;;5075898;28;20412;-74
2021/05/16 11:33:01;;;;;;;0.80;0.67;;;;;;;;;;5094838;28;20820;-74
2021/05/16 11:35:27;;;;;;;1.23;0.70;;;;;;;;;;5094040;28;20586;-71
2021/05/16 11:37:59;;;;;;;1.30;1.20;;;;;;;;;;5094518;28;20503;-72
2021/05/16 11:40:25;;;;;;;0.90;0.70;;;;;;;;;;5096494;28;20504;-73
2021/05/16 11:43:06;;;;;;;1.47;0.87;;;;;;;;;;5100105;28;20519;-74
2021/05/16 11:45:35;;;;;;;1.30;1.00;;;;;;;;;;5100404;28;20505;-74
2021/05/16 11:48:01;;;;;;;1.20;1.10;;;;;;;;;;5100335;28;20436;-73
2021/05/16 11:50:40;;;;;;;3.93;1.20;;;;;;;;;;5100116;28;20435;-74
2021/05/16 11:53:06;;;;;;;2.07;1.87;;;;;;;;;;5097927;28;20408;-74
2021/05/16 11:55:32;;;;;;;3.13;1.70;;;;;;;;;;5078552;28;20464;-74
2021/05/16 11:57:58;;;;;;;1.30;1.17;;;;;;;;;;5103564;28;20428;-74
2021/05/16 12:00:29;;;;;;;1.80;0.90;;;;;;;;;;5103505;28;20468;-74
2021/05/16 12:03:08;;;;;;;1.10;0.90;;;;;;;;;;5098344;28;20417;-74
2021/05/16 12:05:33;;;;;;;1.60;0.80;;;;;;;;;;5076916;28;20457;-75
2021/05/16 12:07:59;;;;;;;0.90;0.80;;;;;;;;;;5085098;28;20439;-73
2021/05/16 12:10:25;;;;;;;0.80;0.60;;;;;;;;;;5089471;28;20433;-72
2021/05/16 12:12:51;;;;;;;1.43;1.00;;;;;;;;;;5092760;28;20755;-75
2021/05/16 12:15:24;;;;;;;6.67;2.40;;;;;;;;;;5091594;28;20405;-76
2021/05/16 12:17:50;;;;;;;1.00;0.90;;;;;;;;;;5091804;28;20492;-76
2021/05/16 12:20:23;;;;;;;2.10;1.57;;;;;;;;;;5105326;28;20443;-74
2021/05/16 12:22:50;;;;;;;3.80;1.27;;;;;;;;;;5085964;28;20886;-74
2021/05/16 12:25:16;;;;;;;2.70;2.50;;;;;;;;;;5074434;28;20536;-73
2021/05/16 12:27:42;;;;;;;1.37;0.90;;;;;;;;;;5084222;28;20433;-72
2021/05/16 12:30:08;;;;;;;2.20;0.90;;;;;;;;;;5092107;28;20451;-75
2021/05/16 12:32:34;;;;;;;1.00;0.90;;;;;;;;;;5075695;28;20387;-74
2021/05/16 12:35:01;;;;;;;4.50;1.90;;;;;;;;;;5073887;28;20413;-74
2021/05/16 12:37:30;;;;;;;1.93;1.30;;;;;;;;;;5091691;28;20447;-74
2021/05/16 12:39:58;;;;;;;2.10;0.80;;;;;;;;;;5092236;28;20504;-73
2021/05/16 12:42:24;;;;;;;1.53;0.73;;;;;;;;;;5092128;28;20926;-75
2021/05/16 12:44:51;;;;;;;1.07;0.90;;;;;;;;;;5092661;28;20460;-75
2021/05/16 12:47:24;;;;;;;2.73;1.17;;;;;;;;;;5091403;28;20520;-75
2021/05/16 12:50:03;;;;;;;5.33;1.47;;;;;;;;;;5090876;28;20400;-75
2021/05/16 12:52:29;;;;;;;3.77;1.30;;;;;;;;;;5089764;28;20477;-75
2021/05/16 12:54:55;;;;;;;1.43;1.10;;;;;;;;;;5090615;28;20413;-75
2021/05/16 12:59:59;;;;;;;1.10;0.83;;;;;;;;;;5090688;28;20406;-75
2021/05/16 13:02:28;;;;;;;1.73;1.13;;;;;;;;;;5091195;28;20450;-74
2021/05/16 13:04:58;;;;;;;1.73;1.10;;;;;;;;;;5093266;28;20444;-74
2021/05/16 13:07:36;;;;;;;1.00;0.73;;;;;;;;;;5088874;28;20438;-73
2021/05/16 13:10:21;;;;;;;0.83;0.60;;;;;;;;;;5074174;28;20778;-73
2021/05/16 13:12:47;;;;;;;1.23;0.60;;;;;;;;;;5067279;28;20762;-74
2021/05/16 13:15:13;;;;;;;1.23;0.50;;;;;;;;;;5089418;28;20406;-75
2021/05/16 13:17:39;;;;;;;3.03;0.63;;;;;;;;;;5087928;28;20399;-75
2021/05/16 13:20:19;;;;;;;0.80;0.60;;;;;;;;;;5080099;28;20919;-74
2021/05/16 13:22:45;;;;;;;0.70;0.60;;;;;;;;;;5096972;28;20495;-76
2021/05/16 13:25:12;;;;;;;5.43;1.43;;;;;;;;;;5100818;28;20556;-75
2021/05/16 13:27:39;;;;;;;1.00;0.90;;;;;;;;;;5090899;28;20517;-76
2021/05/16 13:30:07;;;;;;;1.23;1.13;;;;;;;;;;5087008;28;20461;-76
2021/05/16 13:32:33;;;;;;;0.90;0.57;;;;;;;;;;5072320;28;20416;-76
2021/05/16 13:35:01;;;;;;;0.90;0.60;;;;;;;;;;5089454;28;20402;-74
2021/05/16 13:37:28;;;;;;;0.80;0.60;;;;;;;;;;5067632;28;20452;-75
2021/05/16 13:39:54;;;;;;;0.83;0.63;;;;;;;;;;5067542;28;20423;-73
2021/05/16 13:42:20;;;;;;;1.30;0.70;;;;;;;;;;5094754;28;20492;-73
2021/05/16 13:44:47;;;;;;;0.80;0.60;;;;;;;;;;5106411;28;20444;-75
2021/05/16 13:47:13;;;;;;;2.70;0.70;;;;;;;;;;5102192;28;20424;-74
2021/05/16 13:49:39;;;;;;;0.83;0.67;;;;;;;;;;5099103;28;20546;-75
2021/05/16 13:52:05;;;;;;;0.73;0.50;;;;;;;;;;5094136;28;20484;-77
2021/05/16 13:54:31;;;;;;;0.80;0.60;;;;;;;;;;5093867;28;20487;-76
2021/05/16 13:57:01;;;;;;;1.83;0.70;;;;;;;;;;5092207;28;20444;-75
2021/05/16 13:59:29;;;;;;;2.70;1.10;;;;;;;;;;5092065;28;20397;-73
2021/05/16 14:01:57;;;;;;;1.10;0.60;;;;;;;;;;5093564;28;20401;-72
2021/05/16 14:04:23;;;;;;;1.37;0.83;;;;;;;;;;5075700;28;20417;-73
2021/05/16 14:06:49;;;;;;;1.40;1.20;;;;;;;;;;5093749;28;20417;-73
2021/05/16 14:09:15;;;;;;;2.20;1.00;;;;;;;;;;5081355;28;20512;-72
2021/05/16 14:11:42;;;;;;;3.20;1.23;;;;;;;;;;5090814;28;20420;-72
2021/05/16 14:14:09;;;;;;;0.87;0.67;;;;;;;;;;5089230;28;20414;-71
2021/05/16 14:16:35;;;;;;;1.17;1.00;;;;;;;;;;5086106;28;20916;-72
2021/05/16 14:19:01;;;;;;;0.80;0.63;;;;;;;;;;5086544;28;20507;-72
2021/05/16 14:21:28;;;;;;;1.30;1.00;;;;;;;;;;5087878;28;20485;-71
2021/05/16 14:23:54;;;;;;;2.00;1.33;;;;;;;;;;5081854;28;20408;-73
2021/05/16 14:26:20;;;;;;;3.50;1.47;;;;;;;;;;5074227;28;20814;-74
2021/05/16 14:28:46;;;;;;;1.20;1.10;;;;;;;;;;5077541;28;20816;-73
2021/05/16 14:31:13;;;;;;;1.00;0.90;;;;;;;;;;5085764;28;20449;-72
2021/05/16 14:33:55;;;;;;;1.23;0.97;;;;;;;;;;5088067;28;20455;-72
2021/05/16 14:36:32;;;;;;;1.97;1.10;;;;;;;;;;5068088;28;20456;-74
2021/05/16 14:39:04;;;;;;;3.17;0.80;;;;;;;;;;5066804;28;20456;-73
2021/05/16 14:41:30;;;;;;;1.00;0.90;;;;;;;;;;5085290;28;20425;-75
2021/05/16 14:43:57;;;;;;;3.47;1.57;;;;;;;;;;5085380;28;20406;-75
2021/05/16 14:46:27;;;;;;;0.83;0.83;;;;;;;;;;5064945;28;20436;-73
2021/05/16 14:48:53;;;;;;;1.57;1.20;;;;;;;;;;5090920;22;20481;-69